createdAt,value
2018-04-17T00:02:20.840Z,90.80
2018-04-17T00:04:50.247Z,90.80
2018-04-17T00:07:19.110Z,90.70
2018-04-17T00:09:48.089Z,90.20
2018-04-17T00:12:17.959Z,90.00
2018-04-17T00:14:46.544Z,89.90
2018-04-17T00:17:15.201Z,89.80
2018-04-17T00:19:43.748Z,89.90
2018-04-17T00:22:13.246Z,90.30
2018-04-17T00:24:42.005Z,90.30
2018-04-17T00:27:10.816Z,90.50
2018-04-17T00:29:39.639Z,90.60
2018-04-17T00:32:08.212Z,90.80
2018-04-17T00:34:36.827Z,90.90
2018-04-17T00:37:05.542Z,91.10
2018-04-17T00:39:34.318Z,91.10
2018-04-17T00:42:04.390Z,91.10
2018-04-17T00:44:33.276Z,91.10
2018-04-17T00:47:02.647Z,91.20
2018-04-17T00:49:31.185Z,91.60
2018-04-17T00:51:59.724Z,91.50
2018-04-17T00:54:28.416Z,91.00
2018-04-17T00:56:56.982Z,91.20
2018-04-17T00:59:25.580Z,91.20
2018-04-17T01:01:54.259Z,91.20
2018-04-17T01:04:22.845Z,91.30
2018-04-17T01:06:51.398Z,91.10
2018-04-17T01:09:20.140Z,91.00
2018-04-17T01:11:49.630Z,91.30
2018-04-17T01:14:18.668Z,91.30
2018-04-17T01:16:47.635Z,91.60
2018-04-17T01:19:16.415Z,91.50
2018-04-17T01:21:45.877Z,91.50
2018-04-17T01:24:14.559Z,91.50
2018-04-17T01:26:43.182Z,91.60
2018-04-17T01:29:11.858Z,91.40
2018-04-17T01:31:41.176Z,91.10
2018-04-17T01:34:10.583Z,91.10
2018-04-17T01:36:39.892Z,91.40
2018-04-17T01:39:08.663Z,91.10
2018-04-17T01:41:37.426Z,91.10
2018-04-17T01:44:08.136Z,91.00
2018-04-17T01:46:37.879Z,91.00
2018-04-17T01:49:06.745Z,90.80
2018-04-17T01:51:36.308Z,91.20
2018-04-17T01:54:05.093Z,91.20
2018-04-17T01:56:33.880Z,91.30
2018-04-17T01:59:03.325Z,91.60
2018-04-17T02:01:31.939Z,91.60
2018-04-17T02:04:00.721Z,92.10
2018-04-17T02:06:30.368Z,93.60
2018-04-17T02:08:59.092Z,93.30
2018-04-17T02:11:27.834Z,93.50
2018-04-17T02:13:56.533Z,93.70
2018-04-17T02:16:26.875Z,93.90
2018-04-17T02:18:55.862Z,94.10
2018-04-17T02:21:24.469Z,94.00
2018-04-17T02:23:53.094Z,94.00
2018-04-17T02:26:21.755Z,94.30
2018-04-17T02:28:51.118Z,94.10
2018-04-17T02:31:19.760Z,94.10
2018-04-17T02:33:48.403Z,94.30
2018-04-17T02:36:17.124Z,94.40
2018-04-17T02:38:45.802Z,94.40
2018-04-17T02:41:15.159Z,94.70
2018-04-17T02:43:43.729Z,94.60
2018-04-17T02:46:13.083Z,94.50
2018-04-17T02:48:42.063Z,94.50
2018-04-17T02:51:12.437Z,94.70
2018-04-17T02:53:41.039Z,94.70
2018-04-17T02:56:09.738Z,95.20
2018-04-17T02:58:38.668Z,94.30
2018-04-17T03:01:07.239Z,94.40
2018-04-17T03:03:36.522Z,94.50
2018-04-17T03:06:05.229Z,94.50
2018-04-17T03:08:33.975Z,94.90
2018-04-17T03:11:02.615Z,94.90
2018-04-17T03:13:31.313Z,95.20
2018-04-17T03:15:59.937Z,95.10
2018-04-17T03:18:28.436Z,95.20
2018-04-17T03:20:57.116Z,95.10
2018-04-17T03:23:26.260Z,95.70
2018-04-17T03:25:55.266Z,95.80
2018-04-17T03:28:23.954Z,96.10
2018-04-17T03:30:53.441Z,95.90
2018-04-17T03:33:22.041Z,95.90
2018-04-17T03:35:50.593Z,96.10
2018-04-17T03:38:19.980Z,96.30
2018-04-17T03:40:48.495Z,96.30
2018-04-17T03:43:17.098Z,96.00
2018-04-17T03:45:45.632Z,95.60
2018-04-17T03:48:14.212Z,95.60
2018-04-17T03:50:43.993Z,95.60
2018-04-17T03:53:13.456Z,95.60
2018-04-17T03:55:42.839Z,95.90
2018-04-17T03:58:12.146Z,96.10
2018-04-17T04:00:40.833Z,96.10
2018-04-17T04:03:10.325Z,96.50
2018-04-17T04:05:38.935Z,96.50
2018-04-17T04:08:08.432Z,96.30
2018-04-17T04:10:36.922Z,96.30
2018-04-17T04:13:05.470Z,96.30
2018-04-17T04:15:34.205Z,96.60
2018-04-17T04:18:21.520Z,96.40
2018-04-17T04:21:08.511Z,96.40
2018-04-17T04:23:55.094Z,96.40
2018-04-17T04:26:33.124Z,96.60
2018-04-17T04:29:01.756Z,96.60
2018-04-17T04:31:31.189Z,96.90
2018-04-17T04:34:00.673Z,96.90
2018-04-17T04:36:29.493Z,96.90
2018-04-17T04:38:58.448Z,97.00
2018-04-17T04:41:28.003Z,96.60
2018-04-17T04:43:56.937Z,96.60
2018-04-17T04:46:25.561Z,96.90
2018-04-17T04:48:54.191Z,96.80
2018-04-17T04:51:23.522Z,97.00
2018-04-17T04:53:52.163Z,97.00
2018-04-17T04:56:20.743Z,97.00
2018-04-17T04:58:49.297Z,97.00
2018-04-17T05:01:17.869Z,97.20
2018-04-17T05:03:46.456Z,97.30
2018-04-17T05:06:15.027Z,97.30
2018-04-17T05:08:43.626Z,97.30
2018-04-17T05:11:12.645Z,97.50
2018-04-17T05:13:42.295Z,96.70
2018-04-17T05:16:11.868Z,96.40
2018-04-17T05:18:40.567Z,96.40
2018-04-17T05:21:09.137Z,96.60
2018-04-17T05:23:38.596Z,96.90
2018-04-17T05:26:07.307Z,96.90
2018-04-17T05:28:35.995Z,97.00
2018-04-17T05:31:04.928Z,97.00
2018-04-17T05:33:33.552Z,96.70
2018-04-17T05:36:02.141Z,96.50
2018-04-17T05:38:30.919Z,96.30
2018-04-17T05:41:00.240Z,95.90
2018-04-17T05:43:30.046Z,95.70
2018-04-17T05:45:59.185Z,95.60
2018-04-17T05:48:27.959Z,95.40
2018-04-17T05:50:57.406Z,95.20
2018-04-17T05:53:26.879Z,94.70
2018-04-17T05:55:55.598Z,94.60
2018-04-17T05:58:24.237Z,94.50
2018-04-17T06:00:52.889Z,94.60
2018-04-17T06:03:21.477Z,94.40
2018-04-17T06:05:50.213Z,94.10
2018-04-17T06:08:18.825Z,94.10
2018-04-17T06:10:47.759Z,93.70
2018-04-17T06:13:17.311Z,92.90
2018-04-17T06:15:47.399Z,92.70
2018-04-17T06:18:16.653Z,92.60
2018-04-17T06:20:45.551Z,91.60
2018-04-17T06:23:14.183Z,91.50
2018-04-17T06:25:43.760Z,90.90
2018-04-17T06:28:12.471Z,90.90
2018-04-17T06:30:41.310Z,90.20
2018-04-17T06:33:10.199Z,90.60
2018-04-17T06:35:39.314Z,91.00
2018-04-17T06:38:08.004Z,90.90
2018-04-17T06:40:36.618Z,91.10
2018-04-17T06:43:05.322Z,91.40
2018-04-17T06:45:33.894Z,91.80
2018-04-17T06:48:03.450Z,92.10
2018-04-17T06:50:33.493Z,91.80
2018-04-17T06:53:02.441Z,91.70
2018-04-17T06:55:31.166Z,91.40
2018-04-17T06:58:00.280Z,91.50
2018-04-17T07:00:28.800Z,91.50
2018-04-17T07:02:57.354Z,91.20
2018-04-17T07:05:25.999Z,90.90
2018-04-17T07:07:54.689Z,90.80
2018-04-17T07:10:23.652Z,90.80
2018-04-17T07:12:52.302Z,90.70
2018-04-17T07:15:21.184Z,90.40
2018-04-17T07:17:49.840Z,89.90
2018-04-17T07:20:18.673Z,89.80
2018-04-17T07:22:49.444Z,88.30
2018-04-17T07:25:18.362Z,88.30
2018-04-17T07:27:46.939Z,87.30
2018-04-17T07:30:16.365Z,85.10
2018-04-17T07:32:45.767Z,83.90
2018-04-17T07:35:14.545Z,83.90
2018-04-17T07:37:43.142Z,83.10
2018-04-17T07:40:11.844Z,81.00
2018-04-17T07:42:40.486Z,77.90
2018-04-17T07:45:09.900Z,74.90
2018-04-17T07:47:38.723Z,74.80
2018-04-17T07:50:07.491Z,72.30
2018-04-17T07:52:36.953Z,71.40
2018-04-17T07:55:06.130Z,69.80
2018-04-17T07:57:34.894Z,69.80
2018-04-17T08:00:03.534Z,68.90
2018-04-17T08:02:32.216Z,67.50
2018-04-17T08:05:01.649Z,67.30
2018-04-17T08:07:30.649Z,67.10
2018-04-17T08:09:59.973Z,65.90
2018-04-17T08:12:28.535Z,65.50
2018-04-17T08:14:57.155Z,63.90
2018-04-17T08:17:25.936Z,59.70
2018-04-17T08:19:54.863Z,58.00
2018-04-17T08:22:23.572Z,58.30
2018-04-17T08:24:52.488Z,57.50
2018-04-17T08:27:21.851Z,56.00
2018-04-17T08:29:51.330Z,56.40
2018-04-17T08:32:20.069Z,56.40
2018-04-17T08:34:48.786Z,56.30
2018-04-17T08:37:17.384Z,56.20
2018-04-17T08:39:46.059Z,55.70
2018-04-17T08:42:14.722Z,55.80
2018-04-17T08:44:44.320Z,55.10
2018-04-17T08:47:13.479Z,55.10
2018-04-17T08:49:42.076Z,54.40
2018-04-17T08:52:11.529Z,52.50
2018-04-17T08:54:40.145Z,52.50
2018-04-17T08:57:08.843Z,50.00
2018-04-17T08:59:38.263Z,49.30
2018-04-17T09:02:07.972Z,49.10
2018-04-17T09:04:37.645Z,49.20
2018-04-17T09:07:06.547Z,49.10
2018-04-17T09:09:36.359Z,49.00
2018-04-17T09:12:05.363Z,48.80
2018-04-17T09:14:35.000Z,45.30
2018-04-17T09:17:03.744Z,45.30
2018-04-17T09:19:34.617Z,43.00
2018-04-17T09:22:04.211Z,41.00
2018-04-17T09:24:32.881Z,41.20
2018-04-17T09:27:03.781Z,41.60
2018-04-17T09:29:33.187Z,42.50
2018-04-17T09:32:01.909Z,42.80
2018-04-17T09:34:30.795Z,42.80
2018-04-17T09:37:00.331Z,42.60
2018-04-17T09:39:29.190Z,42.60
2018-04-17T09:41:58.709Z,42.20
2018-04-17T09:44:28.798Z,40.70
2018-04-17T09:46:58.465Z,40.10
2018-04-17T09:49:27.216Z,39.10
2018-04-17T09:51:56.876Z,39.50
2018-04-17T09:54:25.709Z,39.40
2018-04-17T09:56:54.659Z,39.30
2018-04-17T09:59:24.286Z,38.40
2018-04-17T10:01:54.531Z,35.90
2018-04-17T10:04:24.488Z,35.90
2018-04-17T10:06:53.921Z,36.30
2018-04-17T10:09:22.927Z,36.30
2018-04-17T10:11:51.570Z,35.50
2018-04-17T10:14:20.620Z,34.30
2018-04-17T10:16:49.356Z,32.20
2018-04-17T10:19:18.119Z,34.40
2018-04-17T10:21:46.911Z,34.20
2018-04-17T10:24:16.131Z,34.40
2018-04-17T10:26:44.868Z,35.70
2018-04-17T10:29:14.035Z,34.60
2018-04-17T10:31:44.228Z,34.50
2018-04-17T10:34:13.943Z,35.40
2018-04-17T10:36:43.268Z,35.40
2018-04-17T10:39:13.051Z,35.90
2018-04-17T10:41:42.561Z,35.70
2018-04-17T10:44:11.860Z,36.20
2018-04-17T10:46:40.698Z,35.90
2018-04-17T10:49:09.359Z,37.10
2018-04-17T10:51:38.004Z,37.50
2018-04-17T10:54:07.396Z,36.60
2018-04-17T10:56:36.182Z,36.60
2018-04-17T10:59:05.605Z,35.90
2018-04-17T11:01:34.671Z,36.10
2018-04-17T11:04:04.136Z,34.90
2018-04-17T11:06:32.831Z,34.80
2018-04-17T11:09:01.803Z,35.00
2018-04-17T11:11:32.145Z,35.80
2018-04-17T11:14:00.913Z,35.80
2018-04-17T11:16:29.828Z,34.90
2018-04-17T11:18:58.492Z,35.10
2018-04-17T11:21:27.128Z,36.00
2018-04-17T11:23:55.843Z,37.10
2018-04-17T11:26:24.505Z,37.20
2018-04-17T11:28:53.337Z,37.50
2018-04-17T11:31:23.773Z,37.10
2018-04-17T11:33:52.609Z,37.10
2018-04-17T11:36:21.262Z,37.20
2018-04-17T11:38:49.884Z,38.70
2018-04-17T11:41:18.530Z,40.50
2018-04-17T11:43:47.955Z,44.20
2018-04-17T11:46:16.590Z,44.30
2018-04-17T11:48:45.263Z,45.10
2018-04-17T11:51:14.369Z,46.20
2018-04-17T11:53:43.051Z,45.20
2018-04-17T11:56:11.897Z,45.00
2018-04-17T11:58:41.577Z,40.90
2018-04-17T12:01:10.567Z,38.90
2018-04-17T12:03:40.073Z,37.10
2018-04-17T12:06:11.449Z,34.90
2018-04-17T12:08:40.108Z,33.40
2018-04-17T12:11:09.109Z,34.70
2018-04-17T12:13:38.004Z,35.20
2018-04-17T12:16:06.757Z,38.80
2018-04-17T12:18:36.354Z,42.70
2018-04-17T12:21:05.417Z,42.70
2018-04-17T12:23:35.436Z,42.20
2018-04-17T12:26:05.393Z,42.50
2018-04-17T12:28:34.746Z,42.50
2018-04-17T12:31:04.873Z,40.80
2018-04-17T12:33:34.814Z,38.30
2018-04-17T12:36:04.969Z,39.00
2018-04-17T12:38:33.716Z,38.40
2018-04-17T12:41:02.526Z,40.70
2018-04-17T12:43:32.030Z,45.10
2018-04-17T12:46:00.577Z,45.10
2018-04-17T12:48:29.231Z,46.90
2018-04-17T12:50:57.923Z,47.80
2018-04-17T12:53:26.514Z,49.10
2018-04-17T12:55:55.180Z,50.10
2018-04-17T12:58:24.653Z,50.10
2018-04-17T13:00:53.496Z,50.10
2018-04-17T13:03:23.091Z,50.50
2018-04-17T13:05:52.059Z,50.20
2018-04-17T13:08:20.866Z,50.20
2018-04-17T13:10:50.329Z,49.50
2018-04-17T13:13:19.027Z,49.50
2018-04-17T13:15:47.746Z,47.80
2018-04-17T13:18:16.471Z,45.70
2018-04-17T13:20:45.234Z,44.70
2018-04-17T13:23:14.702Z,42.10
2018-04-17T13:25:43.674Z,42.00
2018-04-17T13:28:13.235Z,40.20
2018-04-17T13:30:42.001Z,40.20
2018-04-17T13:33:12.071Z,35.10
2018-04-17T13:35:42.139Z,36.80
2018-04-17T13:38:10.806Z,33.90
2018-04-17T13:40:39.458Z,33.50
2018-04-17T13:43:08.082Z,33.80
2018-04-17T13:45:36.842Z,35.40
2018-04-17T13:48:05.664Z,35.20
2018-04-17T13:50:34.273Z,33.80
2018-04-17T13:53:02.900Z,34.00
2018-04-17T13:55:32.395Z,37.30
2018-04-17T13:58:01.111Z,37.20
2018-04-17T14:00:29.757Z,38.50
2018-04-17T14:02:58.332Z,37.80
2018-04-17T14:05:27.525Z,38.90
2018-04-17T14:07:57.381Z,38.70
2018-04-17T14:10:26.897Z,40.60
2018-04-17T14:12:55.526Z,40.60
2018-04-17T14:15:24.157Z,39.70
2018-04-17T14:17:52.749Z,39.50
2018-04-17T14:20:21.584Z,37.60
2018-04-17T14:22:51.116Z,36.70
2018-04-17T14:25:20.651Z,36.20
2018-04-17T14:27:49.369Z,36.10
2018-04-17T14:30:20.123Z,37.40
2018-04-17T14:32:49.025Z,37.70
2018-04-17T14:35:18.653Z,38.40
2018-04-17T14:37:48.718Z,39.50
2018-04-17T14:40:18.165Z,39.40
2018-04-17T14:42:49.181Z,40.20
2018-04-17T14:45:17.928Z,40.50
2018-04-17T14:47:47.178Z,41.00
2018-04-17T14:50:15.927Z,41.80
2018-04-17T14:52:44.762Z,42.80
2018-04-17T14:55:14.022Z,42.80
2018-04-17T14:57:42.699Z,43.00
2018-04-17T15:00:12.989Z,43.10
2018-04-17T15:02:42.022Z,43.60
2018-04-17T15:05:10.767Z,43.50
2018-04-17T15:07:40.020Z,44.30
2018-04-17T15:10:12.181Z,45.20
2018-04-17T15:12:41.321Z,45.40
2018-04-17T15:15:11.987Z,46.00
2018-04-17T15:17:42.740Z,46.10
2018-04-17T15:20:14.289Z,45.90
2018-04-17T15:22:45.919Z,45.90
2018-04-17T15:25:15.034Z,45.70
2018-04-17T15:27:47.053Z,45.50
2018-04-17T15:30:19.482Z,45.20
2018-04-17T15:32:50.077Z,46.00
2018-04-17T15:35:19.469Z,44.90
2018-04-17T15:37:48.895Z,44.50
2018-04-17T15:40:17.686Z,44.40
2018-04-17T15:42:46.443Z,44.20
2018-04-17T15:45:15.263Z,44.20
2018-04-17T15:47:44.180Z,45.10
2018-04-17T15:50:12.859Z,45.10
2018-04-17T15:52:41.624Z,44.90
2018-04-17T15:55:11.194Z,45.20
2018-04-17T15:57:40.087Z,45.20
2018-04-17T16:00:09.479Z,45.80
2018-04-17T16:02:40.261Z,45.90
2018-04-17T16:05:10.092Z,45.50
2018-04-17T16:07:39.072Z,45.90
2018-04-17T16:10:07.943Z,45.90
2018-04-17T16:12:37.756Z,45.70
2018-04-17T16:15:07.005Z,45.70
2018-04-17T16:17:36.103Z,45.40
2018-04-17T16:20:05.072Z,45.20
2018-04-17T16:22:34.586Z,45.60
2018-04-17T16:25:05.235Z,45.70
2018-04-17T16:27:35.487Z,45.90
2018-04-17T16:30:05.689Z,44.70
2018-04-17T16:32:34.477Z,44.70
2018-04-17T16:35:03.453Z,43.40
2018-04-17T16:37:36.344Z,44.40
2018-04-17T16:40:05.193Z,44.40
2018-04-17T16:42:35.190Z,45.60
2018-04-17T16:45:04.516Z,45.60
2018-04-17T16:47:33.239Z,46.00
2018-04-17T16:50:01.799Z,46.50
2018-04-17T16:52:30.664Z,47.20
2018-04-17T16:55:00.480Z,46.90
2018-04-17T16:57:31.223Z,47.30
2018-04-17T17:00:00.106Z,47.20
2018-04-17T17:02:30.264Z,47.40
2018-04-17T17:04:59.825Z,47.70
2018-04-17T17:07:29.507Z,48.00
2018-04-17T17:09:58.200Z,48.00
2018-04-17T17:12:26.899Z,48.10
2018-04-17T17:14:55.637Z,48.30
2018-04-17T17:17:25.229Z,48.50
2018-04-17T17:19:54.361Z,48.70
2018-04-17T17:22:23.392Z,48.90
2018-04-17T17:24:52.812Z,48.70
2018-04-17T17:27:22.042Z,48.80
2018-04-17T17:29:50.797Z,49.00
2018-04-17T17:32:20.349Z,49.30
2018-04-17T17:34:49.145Z,49.30
2018-04-17T17:37:18.096Z,49.80
2018-04-17T17:39:46.970Z,50.20
2018-04-17T17:42:16.049Z,50.50
2018-04-17T17:44:44.778Z,50.90
2018-04-17T17:47:14.451Z,51.80
2018-04-17T17:49:43.308Z,51.70
2018-04-17T17:52:12.304Z,52.10
2018-04-17T17:54:41.702Z,52.90
2018-04-17T17:57:11.702Z,52.40
2018-04-17T17:59:40.985Z,52.60
2018-04-17T18:02:09.758Z,52.80
2018-04-17T18:04:38.415Z,52.90
2018-04-17T18:07:07.114Z,53.10
2018-04-17T18:09:35.801Z,53.40
2018-04-17T18:12:04.810Z,53.80
2018-04-17T18:14:33.418Z,54.00
2018-04-17T18:17:03.253Z,54.60
2018-04-17T18:19:31.911Z,55.00
2018-04-17T18:22:01.263Z,55.80
2018-04-17T18:24:30.385Z,55.70
2018-04-17T18:26:59.610Z,56.10
2018-04-17T18:29:29.549Z,56.50
2018-04-17T18:31:58.522Z,56.90
2018-04-17T18:34:27.437Z,57.20
2018-04-17T18:36:56.220Z,57.60
2018-04-17T18:39:25.613Z,58.20
2018-04-17T18:41:54.629Z,58.60
2018-04-17T18:44:23.451Z,59.20
2018-04-17T18:46:52.473Z,59.60
2018-04-17T18:49:22.108Z,60.70
2018-04-17T18:51:52.029Z,61.10
2018-04-17T18:54:22.564Z,61.50
2018-04-17T18:56:51.843Z,61.50
2018-04-17T18:59:21.114Z,61.70
2018-04-17T19:01:49.885Z,62.20
2018-04-17T19:04:18.609Z,62.30
2018-04-17T19:06:47.433Z,62.60
2018-04-17T19:09:16.149Z,62.50
2018-04-17T19:11:44.973Z,63.00
2018-04-17T19:14:14.828Z,63.20
2018-04-17T19:16:44.891Z,63.40
2018-04-17T19:19:14.058Z,63.40
2018-04-17T19:21:44.642Z,63.40
2018-04-17T19:24:14.362Z,63.40
2018-04-17T19:26:44.027Z,63.70
2018-04-17T19:29:13.111Z,63.60
2018-04-17T19:31:42.176Z,63.90
2018-04-17T19:34:11.092Z,65.00
2018-04-17T19:36:39.827Z,64.70
2018-04-17T19:39:10.101Z,64.90
2018-04-17T19:41:39.585Z,64.90
2018-04-17T19:44:08.768Z,65.60
2018-04-17T19:46:37.711Z,65.10
2018-04-17T19:49:06.683Z,65.10
2018-04-17T19:51:35.792Z,65.30
2018-04-17T19:54:05.422Z,65.50
2018-04-17T19:56:34.307Z,66.10
2018-04-17T19:59:03.909Z,67.60
2018-04-17T20:01:32.589Z,67.50
2018-04-17T20:04:01.303Z,67.60
2018-04-17T20:06:30.078Z,68.20
2018-04-17T20:08:59.119Z,67.80
2018-04-17T20:11:28.042Z,68.90
2018-04-17T20:13:57.082Z,68.70
2018-04-17T20:16:27.185Z,69.20
2018-04-17T20:18:56.011Z,70.60
2018-04-17T20:21:26.187Z,71.20
2018-04-17T20:23:58.088Z,72.60
2018-04-17T20:26:28.037Z,72.60
2018-04-17T20:28:56.933Z,72.60
2018-04-17T20:31:26.567Z,74.40
2018-04-17T20:33:56.333Z,74.80
2018-04-17T20:36:25.907Z,74.80
2018-04-17T20:38:55.560Z,75.10
2018-04-17T20:41:24.506Z,75.00
2018-04-17T20:43:53.842Z,75.00
2018-04-17T20:46:22.937Z,74.20
2018-04-17T20:48:53.103Z,72.80
2018-04-17T20:51:22.347Z,72.00
2018-04-17T20:53:53.051Z,72.50
2018-04-17T20:56:22.487Z,72.50
2018-04-17T20:58:51.322Z,73.00
2018-04-17T21:01:20.626Z,73.40
2018-04-17T21:03:49.989Z,74.20
2018-04-17T21:06:19.527Z,74.90
2018-04-17T21:08:48.251Z,74.90
2018-04-17T21:11:16.879Z,75.30
2018-04-17T21:13:45.564Z,75.60
2018-04-17T21:16:15.056Z,75.90
2018-04-17T21:18:44.936Z,75.70
2018-04-17T21:21:13.694Z,75.60
2018-04-17T21:23:43.047Z,75.20
2018-04-17T21:26:12.497Z,75.10
2018-04-17T21:28:41.179Z,75.10
2018-04-17T21:31:09.846Z,75.00
2018-04-17T21:33:38.499Z,75.30
2018-04-17T21:36:07.072Z,75.20
2018-04-17T21:38:35.704Z,75.10
2018-04-17T21:41:04.534Z,75.30
2018-04-17T21:43:33.239Z,75.50
2018-04-17T21:46:01.899Z,75.70
2018-04-17T21:48:31.412Z,76.00
2018-04-17T21:51:00.393Z,75.80
2018-04-17T21:53:29.158Z,75.70
2018-04-17T21:55:58.525Z,75.20
2018-04-17T21:58:27.130Z,75.20
2018-04-17T22:00:55.810Z,74.70
2018-04-17T22:03:24.463Z,74.40
2018-04-17T22:05:53.067Z,74.50
2018-04-17T22:08:22.472Z,74.30
2018-04-17T22:10:51.085Z,74.40
2018-04-17T22:13:19.707Z,74.40
2018-04-17T22:15:48.374Z,74.60
2018-04-17T22:18:17.143Z,74.40
2018-04-17T22:20:46.414Z,74.20
2018-04-17T22:23:15.753Z,74.80
2018-04-17T22:25:44.479Z,73.80
2018-04-17T22:28:13.230Z,73.50
2018-04-17T22:30:41.933Z,73.50
2018-04-17T22:33:11.452Z,75.40
2018-04-17T22:35:40.883Z,74.90
2018-04-17T22:38:09.668Z,74.90
2018-04-17T22:40:38.461Z,75.00
2018-04-17T22:43:07.129Z,75.40
2018-04-17T22:45:35.915Z,76.00
2018-04-17T22:48:05.383Z,78.00
2018-04-17T22:50:34.852Z,77.90
2018-04-17T22:53:03.871Z,78.50
2018-04-17T22:55:32.585Z,79.60
2018-04-17T22:58:02.135Z,80.20
2018-04-17T23:00:30.793Z,81.10
2018-04-17T23:02:59.459Z,81.40
2018-04-17T23:05:28.099Z,81.40
2018-04-17T23:07:56.683Z,81.50
2018-04-17T23:10:25.347Z,81.40
2018-04-17T23:12:54.741Z,80.70
2018-04-17T23:15:23.422Z,80.70
2018-04-17T23:17:52.048Z,80.40
2018-04-17T23:20:20.775Z,80.10
2018-04-17T23:22:49.636Z,79.90
2018-04-17T23:25:18.946Z,79.90
2018-04-17T23:27:47.753Z,79.80
2018-04-17T23:30:16.344Z,79.90
2018-04-17T23:32:45.676Z,80.30
2018-04-17T23:35:15.075Z,80.70
2018-04-17T23:37:44.439Z,80.20
2018-04-17T23:40:13.033Z,80.70
2018-04-17T23:42:41.673Z,80.40
2018-04-17T23:45:10.322Z,80.30
2018-04-17T23:47:39.746Z,79.70
2018-04-17T23:50:09.105Z,79.00
2018-04-17T23:52:37.927Z,79.00
2018-04-17T23:55:07.445Z,78.70
2018-04-17T23:57:36.341Z,78.50
